Terminal Aerodrome Forecast
Issued by NWS

Current Version | Previous Version | Text Only | Print | Product List | Glossary On
Versions: 1 2 3 4 5 6 7 8 9 10 11 12 13
674
FTUS45 KRIW 292323
TAFLND
TAF
KLND 292323Z 3000/3024 VRB05KT P6SM VCSH SCT070 BKN090
     FM300500 VRB05KT P6SM BKN090
     FM301000 VRB04KT P6SM BKN150
     FM302100 32010KT P6SM SCT080=

USA.gov is the U.S. government's official web portal to all federal, state and local government web resources and services.